Sunday, June 24, 2018, 8:46 PM EDT
Back to Local

KGSB, Seymour-johnson Air Force Base

Location: Goldsboro, NC, United States Lat: 35.333
Local Time: 8:46 PM EDT ( 0:46 GMT) Lon: -77.967
Time Zone: US/Eastern Elev: 108 ft

Show me the last for .
Show Decoded

2018-06-24 19:56 METAR KGSB 242356Z AUTO 20006KT 10SM CLR 26/21 A2991 RMK AO2 SLP131 60021
                 T02640209 10357 20235 50005 $ =
2018-06-24 18:56 METAR KGSB 242256Z AUTO 25006KT 10SM FEW190 25/21 A2987 RMK AO2 LTG DSNT SW
                 SLP117 T02450206 $ =
2018-06-24 17:56 METAR KGSB 242156Z AUTO 23007KT 10SM CLR 24/21 A2992 RMK AO2 PK WND 24033/2059
                 LTG DSNT S RAB01E29RAB30E31RAB33E40 TSB09E24 SLP134 P0008 T02400207 $ =
2018-06-24 17:40 METAR KGSB 242140Z AUTO 20008KT 10SM FEW060 25/22 A2991 RMK AO2 LTG DSNT S
                 RAB01E29RAB30E31RAB33E40 TSB09E24 SLP131 $ =
2018-06-24 17:33 METAR KGSB 242133Z AUTO 21004KT 10SM -RA VCTS FEW033 FEW060 26/22 A2991 RMK AO2
                 RAB01E29RAB30E31RAB33 TSB09E24 SLP131 $ =
2018-06-24 17:31 METAR KGSB 242131Z AUTO 19003KT 10SM VCTS FEW033 FEW060 26/22 A2990 RMK AO2
                 RAB01E29RAB30E31 TSB09E24 SLP127 $ =
2018-06-24 17:30 METAR KGSB 242130Z AUTO 00000KT 10SM -RA VCTS FEW033 FEW060 26/22 A2990 RMK AO2
                 RAB01E29RAB30 TSB09E24 SLP127 $ =
2018-06-24 17:29 METAR KGSB 242129Z AUTO 18003KT 10SM VCTS FEW033 SCT060 26/22 A2990 RMK AO2
                 RAB01E29 TSB09E24 SLP127 $ =
2018-06-24 17:24 METAR KGSB 242124Z AUTO 22006KT 10SM -RA VCTS FEW033 SCT060 26/23 A2990 RMK AO2
                 RAB01 TSB09E24 SLP127 $ =
2018-06-24 17:09 METAR KGSB 242109Z AUTO 24011G33KT 6SM -TSRA FEW023 SCT060 BKN075 BKN100 26/24
                 A2990 RMK AO2 RAB01 TSB09 SLP127 $ =
2018-06-24 17:01 METAR KGSB 242101Z AUTO 24028G33KT 9SM RA SCT065 28/24 A2990 RMK AO2 LTG DSNT NE
                 RAB01 SLP127 $ =
2018-06-24 16:56 METAR KGSB 242056Z AUTO 22004KT 10SM FEW065 28/24 A2989 RMK AO2 SLP124 60013
                 T02840235 55006 $ =
2018-06-24 15:56 METAR KGSB 241956Z AUTO 21003KT 10SM FEW048 25/22 A2991 RMK AO2 LTG DSNT E-SE
                 RAE06RAB23E45 SLP131 P0001 T02510224 $ =
2018-06-24 15:45 METAR KGSB 241945Z AUTO 21004KT 10SM FEW047 SCT130 25/22 A2990 RMK AO2 LTG DSNT
                 E RAE06RAB23E45 SLP127 $ =
2018-06-24 15:23 METAR KGSB 241923Z AUTO 23012KT 10SM -RA VCTS SCT050 SCT130 26/23 A2992 RMK AO2
                 RAE06RAB23 SLP134 $ =
2018-06-24 15:07 METAR KGSB 241907Z AUTO 18012G20KT 10SM VCTS SCT035 SCT060 SCT075 BKN100 27/23
                 A2991 RMK AO2 WSHFT 01 RAE06 SLP131 $ =
2018-06-24 15:06 METAR KGSB 241906Z AUTO 19014G20KT 10SM VCTS SCT035 SCT060 SCT075 BKN100 27/23
                 A2991 RMK AO2 RAE06 SLP131 $ =
2018-06-24 14:56 METAR KGSB 241856Z AUTO 25007KT 9SM -RA SCT036 BKN060 OVC080 27/23 A2990 RMK AO2
                 PK WND 31032/43 LTG DSNT S-W RAB27 SLP127 P0012 T02740230 $ =
2018-06-24 14:46 METAR KGSB 241846Z AUTO 32017G32KT 4SM +RA FEW029 BKN050 OVC075 28/22 A2990 RMK
                 AO2 WSHFT 32 RAB27 SLP127 $ =
2018-06-24 14:32 METAR KGSB 241832Z AUTO 28015G21KT 10SM -RA FEW038 BKN055 33/25 A2991 RMK AO2
                 WSHFT 21 RAB27 SLP130 $ =
2018-06-24 14:27 METAR KGSB 241827Z AUTO 24017G21KT 10SM -RA BKN055 35/22 A2990 RMK AO2 RAB27
                 SLP127 $ =
2018-06-24 13:56 METAR KGSB 241756Z AUTO 25012KT 10SM FEW200 36/22 A2991 RMK AO2 SLP130 T03570219
                 10360 20269 57009 $ =
2018-06-24 12:56 METAR KGSB 241656Z AUTO 23015G19KT 10SM FEW200 35/22 A2992 RMK AO2 SLP134
                 T03520218 $ =
2018-06-24 11:56 METAR KGSB 241556Z AUTO 24013KT 10SM CLR 34/21 A2993 RMK AO2 SLP137 T03360210 $
                 =
2018-06-24 10:56 METAR KGSB 241456Z AUTO 24011KT 10SM CLR 33/21 A2994 RMK AO2 SLP140 T03260205
                 50004 $ =
2018-06-24 09:56 METAR KGSB 241356Z AUTO 24010KT 10SM CLR 31/21 A2994 RMK AO2 SLP140 T03140209 $
                 =
2018-06-24 08:56 METAR KGSB 241256Z AUTO 26010KT 10SM CLR 29/22 A2994 RMK AO2 SLP141 T02940216 $
                 =
2018-06-24 07:56 METAR KGSB 241156Z AUTO 25010KT 10SM CLR 27/23 A2993 RMK AO2 SLP137 70007
                 T02680226 10268 20246 52016 $ =
2018-06-24 06:56 METAR KGSB 241056Z AUTO 22006KT 10SM CLR 25/22 A2990 RMK AO2 SLP127 T02510222 $
                 =
2018-06-24 05:56 METAR KGSB 240956Z AUTO 22006KT 10SM CLR 25/22 A2989 RMK AO2 SLP123 T02460221 $
                 =
2018-06-24 04:56 METAR KGSB 240856Z AUTO 23005KT 10SM CLR 25/22 A2988 RMK AO2 SLP120 T02490222
                 50001 $ =
2018-06-24 03:56 METAR KGSB 240756Z AUTO 22004KT 10SM CLR 25/23 A2988 RMK AO2 SLP120 T02530228 $
                 =
2018-06-24 02:56 METAR KGSB 240656Z AUTO 21005KT 10SM CLR 26/23 A2988 RMK AO2 SLP120 T02590233 $
                 =
2018-06-24 01:56 METAR KGSB 240556Z AUTO 20005KT 10SM CLR 26/24 A2988 RMK AO2 SLP120 T02590241
                 10316 20259 51004 $ =
2018-06-24 00:56 METAR KGSB 240456Z AUTO 19003KT 10SM CLR 26/25 A2988 RMK AO2 SLP120 T02630245
                 403540250 $ =
2018-06-23 23:56 METAR KGSB 240356Z AUTO 19004KT 10SM CLR 27/25 A2988 RMK AO2 SLP120 T02690247 $
                 =
2018-06-23 22:56 METAR KGSB 240256Z AUTO 16003KT 10SM CLR 27/25 A2987 RMK AO2 SLP117 T02720246
                 52019 $ =
2018-06-23 21:56 METAR KGSB 240156Z AUTO 17005KT 10SM CLR 28/22 A2984 RMK AO2 SLP107 T02820224 $
                 =
2018-06-23 20:56 METAR KGSB 240056Z AUTO 23003KT 10SM CLR 30/21 A2982 RMK AO2 SLP100 T02960212 $
                 =

Support USWX by starting your Amazon purchase here.